Hayling Island, United Kingdom
Current Conditions -  °F | °C
As of 4:50 PM on Tuesday 27 Jan 2015 (Local Time) from EGHI Reporting Station
Broken Clouds Broken Clouds  
Wind Chill: 41°   Ceiling: 2500
Heat Index: 45°   Visibility: 6mi
Dew Point: 36°   Wind: 6mph
Humidity: 71%   Direction: 280°W
Pressure: 30.3"   Gusts: NA
Location:  50.79°N, 0.99°W
Report Text: EGHI 271650Z 28005KT 250V320 9999 BKN025 07/02 Q1026
Loading
Personal Weather Stations






























Interactive Weather Map New forecast layout! Learn more

10-Day Weather Forecast

Advertisements
Track Severe Weather on mobile